createdAt,value
2019-05-11T00:00:14.850Z,99.99
2019-05-11T00:01:14.851Z,99.99
2019-05-11T00:02:14.848Z,99.99
2019-05-11T00:03:14.829Z,99.99
2019-05-11T00:04:14.579Z,99.99
2019-05-11T00:05:14.822Z,99.99
2019-05-11T00:06:14.814Z,99.99
2019-05-11T00:07:14.813Z,99.99
2019-05-11T00:08:14.800Z,99.99
2019-05-11T00:09:14.799Z,99.99
2019-05-11T00:10:14.799Z,99.99
2019-05-11T00:11:14.783Z,99.99
2019-05-11T00:12:14.772Z,99.99
2019-05-11T00:13:14.761Z,99.99
2019-05-11T00:14:14.759Z,99.99
2019-05-11T00:15:14.754Z,99.99
2019-05-11T00:16:14.741Z,99.99
2019-05-11T00:17:14.745Z,99.99
2019-05-11T00:18:14.756Z,99.99
2019-05-11T00:19:14.723Z,99.99
2019-05-11T00:20:14.780Z,99.99
2019-05-11T00:21:14.717Z,99.85
2019-05-11T00:22:14.706Z,99.75
2019-05-11T00:23:14.702Z,99.75
2019-05-11T00:24:14.690Z,99.75
2019-05-11T00:25:14.684Z,99.66
2019-05-11T00:26:14.672Z,99.46
2019-05-11T00:27:14.685Z,99.18
2019-05-11T00:28:14.712Z,98.8
2019-05-11T00:29:14.659Z,98.61
2019-05-11T00:30:14.648Z,98.42
2019-05-11T00:31:14.644Z,98.42
2019-05-11T00:32:14.639Z,98.51
2019-05-11T00:33:14.382Z,98.51
2019-05-11T00:34:14.628Z,98.42
2019-05-11T00:35:14.625Z,98.32
2019-05-11T00:36:14.605Z,98.32
2019-05-11T00:37:14.608Z,98.42
2019-05-11T00:38:14.593Z,98.32
2019-05-11T00:39:14.591Z,97.94
2019-05-11T00:40:17.398Z,97.75
2019-05-11T00:41:14.575Z,97.75
2019-05-11T00:42:14.568Z,97.75
2019-05-11T00:43:14.565Z,97.85
2019-05-11T00:44:14.557Z,97.85
2019-05-11T00:45:14.553Z,97.66
2019-05-11T00:46:14.539Z,97.61
2019-05-11T00:47:14.536Z,97.61
2019-05-11T00:48:14.551Z,97.7
2019-05-11T00:49:14.524Z,97.7
2019-05-11T00:50:14.516Z,97.61
2019-05-11T00:51:14.521Z,97.61
2019-05-11T00:52:14.498Z,97.7
2019-05-11T00:53:14.501Z,97.7
2019-05-11T00:54:14.494Z,97.51
2019-05-11T00:55:14.487Z,97.51
2019-05-11T00:56:14.479Z,97.32
2019-05-11T00:57:14.477Z,97.22
2019-05-11T00:58:14.460Z,96.94
2019-05-11T00:59:24.019Z,96.84
2019-05-11T01:00:14.194Z,96.75
2019-05-11T01:01:14.445Z,96.65
2019-05-11T01:02:14.435Z,96.56
2019-05-11T01:03:14.426Z,96.65
2019-05-11T01:04:14.187Z,96.75
2019-05-11T01:05:14.457Z,96.75
2019-05-11T01:06:14.463Z,96.89
2019-05-11T01:07:14.400Z,96.84
2019-05-11T01:08:14.395Z,97.03
2019-05-11T01:09:14.397Z,97.27
2019-05-11T01:10:40.966Z,97.13
2019-05-11T01:11:14.375Z,97.03
2019-05-11T01:12:14.366Z,96.84
2019-05-11T01:13:14.360Z,96.84
2019-05-11T01:14:14.367Z,96.94
2019-05-11T01:15:14.348Z,96.94
2019-05-11T01:16:14.644Z,97.13
2019-05-11T01:17:14.333Z,97.32
2019-05-11T01:18:14.332Z,97.61
2019-05-11T01:19:14.322Z,97.8
2019-05-11T01:20:14.309Z,97.99
2019-05-11T01:21:14.313Z,97.89
2019-05-11T01:22:14.304Z,98.08
2019-05-11T01:23:14.304Z,98.36
2019-05-11T01:24:14.287Z,98.65
2019-05-11T01:25:14.280Z,98.85
2019-05-11T01:26:14.275Z,98.94
2019-05-11T01:27:14.263Z,98.94
2019-05-11T01:28:14.011Z,99.04
2019-05-11T01:29:14.249Z,99.22
2019-05-11T01:30:14.247Z,99.22
2019-05-11T01:31:14.244Z,99.22
2019-05-11T01:32:14.235Z,99.32
2019-05-11T01:33:14.222Z,99.22
2019-05-11T01:34:14.221Z,99.41
2019-05-11T01:35:13.959Z,99.6
2019-05-11T01:36:14.212Z,99.6
2019-05-11T01:37:14.198Z,99.7
2019-05-11T01:38:14.189Z,99.6
2019-05-11T01:39:14.216Z,99.6
2019-05-11T01:40:14.173Z,99.51
2019-05-11T01:41:14.166Z,99.51
2019-05-11T01:42:13.912Z,99.89
2019-05-11T01:43:14.161Z,99.99
2019-05-11T01:44:14.149Z,99.99
2019-05-11T01:45:14.151Z,99.99
2019-05-11T01:46:14.134Z,99.99
2019-05-11T01:47:14.440Z,99.99
2019-05-11T01:48:14.171Z,99.99
2019-05-11T01:49:14.117Z,99.99
2019-05-11T01:50:14.110Z,99.99
2019-05-11T01:51:14.101Z,99.99
2019-05-11T01:52:14.093Z,99.99
2019-05-11T01:53:14.086Z,99.99
2019-05-11T01:54:14.091Z,99.99
2019-05-11T01:55:14.072Z,99.99
2019-05-11T01:56:14.083Z,99.99
2019-05-11T01:57:14.064Z,99.99
2019-05-11T01:58:14.054Z,99.99
2019-05-11T01:59:14.049Z,99.99
2019-05-11T02:00:14.040Z,99.99
2019-05-11T02:01:14.035Z,99.99
2019-05-11T02:02:14.031Z,99.99
2019-05-11T02:03:14.021Z,99.99
2019-05-11T02:04:14.010Z,99.99
2019-05-11T02:05:14.008Z,99.99
2019-05-11T02:06:13.998Z,99.99
2019-05-11T02:07:13.740Z,99.99
2019-05-11T02:08:13.988Z,99.99
2019-05-11T02:09:13.734Z,99.99
2019-05-11T02:10:13.974Z,99.99
2019-05-11T02:11:18.536Z,99.99
2019-05-11T02:12:13.962Z,99.99
2019-05-11T02:13:13.951Z,99.99
2019-05-11T02:14:13.949Z,99.99
2019-05-11T02:15:13.938Z,99.99
2019-05-11T02:16:13.959Z,99.99
2019-05-11T02:17:13.922Z,99.99
2019-05-11T02:18:13.929Z,99.99
2019-05-11T02:19:13.944Z,99.99
2019-05-11T02:20:13.910Z,99.99
2019-05-11T02:21:13.916Z,99.99
2019-05-11T02:22:13.890Z,99.99
2019-05-11T02:23:13.906Z,99.99
2019-05-11T02:24:13.881Z,99.99
2019-05-11T02:25:13.870Z,99.99
2019-05-11T02:26:13.861Z,99.99
2019-05-11T02:27:13.858Z,99.99
2019-05-11T02:28:13.872Z,99.99
2019-05-11T02:29:13.842Z,99.99
2019-05-11T02:30:13.841Z,99.99
2019-05-11T02:31:13.836Z,99.99
2019-05-11T02:32:13.829Z,99.99
2019-05-11T02:33:13.817Z,99.99
2019-05-11T02:34:14.130Z,99.99
2019-05-11T02:35:13.805Z,99.99
2019-05-11T02:36:13.799Z,99.99
2019-05-11T02:37:13.786Z,99.99
2019-05-11T02:38:13.783Z,99.99
2019-05-11T02:39:13.775Z,99.99
2019-05-11T02:40:13.770Z,99.99
2019-05-11T02:41:13.763Z,99.99
2019-05-11T02:42:13.762Z,99.99
2019-05-11T02:43:13.745Z,99.99
2019-05-11T02:44:13.740Z,99.99
2019-05-11T02:45:13.842Z,99.99
2019-05-11T02:46:13.740Z,99.99
2019-05-11T02:47:13.727Z,99.99
2019-05-11T02:48:13.755Z,99.99
2019-05-11T02:49:13.709Z,99.99
2019-05-11T02:50:13.707Z,99.99
2019-05-11T02:51:13.689Z,99.99
2019-05-11T02:52:13.681Z,99.99
2019-05-11T02:53:13.678Z,99.99
2019-05-11T02:54:13.682Z,99.99
2019-05-11T02:55:13.675Z,99.99
2019-05-11T02:56:13.667Z,99.99
2019-05-11T02:57:13.506Z,99.99
2019-05-11T02:58:13.647Z,99.99
2019-05-11T02:59:13.640Z,99.99
2019-05-11T03:00:13.628Z,99.99
2019-05-11T03:01:13.631Z,99.99
2019-05-11T03:02:13.618Z,99.99
2019-05-11T03:03:13.381Z,99.99
2019-05-11T03:04:13.603Z,99.99
2019-05-11T03:05:13.841Z,99.99
2019-05-11T03:06:13.588Z,99.99
2019-05-11T03:07:13.585Z,99.99
2019-05-11T03:08:13.597Z,99.99
2019-05-11T03:09:13.564Z,99.99
2019-05-11T03:10:13.559Z,99.99
2019-05-11T03:11:13.564Z,99.99
2019-05-11T03:12:13.546Z,99.99
2019-05-11T03:13:13.597Z,99.99
2019-05-11T03:14:13.336Z,99.99
2019-05-11T03:15:13.525Z,99.99
2019-05-11T03:16:13.526Z,99.99
2019-05-11T03:17:13.259Z,99.99
2019-05-11T03:18:13.539Z,99.99
2019-05-11T03:19:13.493Z,99.99
2019-05-11T03:20:13.489Z,99.99
2019-05-11T03:21:13.486Z,99.99
2019-05-11T03:22:13.477Z,99.99
2019-05-11T03:23:13.472Z,99.99
2019-05-11T03:24:13.468Z,99.99
2019-05-11T03:25:13.455Z,99.99
2019-05-11T03:26:13.447Z,99.99
2019-05-11T03:27:13.440Z,99.99
2019-05-11T03:28:13.445Z,99.99
2019-05-11T03:29:13.431Z,99.99
2019-05-11T03:30:13.422Z,99.99
2019-05-11T03:31:13.441Z,99.99
2019-05-11T03:32:13.431Z,99.99
2019-05-11T03:33:13.431Z,99.99
2019-05-11T03:34:13.397Z,99.99
2019-05-11T03:35:13.387Z,99.99
2019-05-11T03:36:13.423Z,99.99
2019-05-11T03:37:13.377Z,99.99
2019-05-11T03:38:13.371Z,99.99
2019-05-11T03:39:13.120Z,99.99
2019-05-11T03:40:13.353Z,99.99
2019-05-11T03:41:13.356Z,99.99
2019-05-11T03:42:17.238Z,99.99
2019-05-11T03:43:13.342Z,99.99
2019-05-11T03:44:13.327Z,99.99
2019-05-11T03:45:13.314Z,99.99
2019-05-11T03:46:13.308Z,99.99
2019-05-11T03:47:13.308Z,99.99
2019-05-11T03:48:13.300Z,99.99
2019-05-11T03:49:13.289Z,99.99
2019-05-11T03:50:13.285Z,99.99
2019-05-11T03:51:13.268Z,99.99
2019-05-11T03:52:13.368Z,99.99
2019-05-11T03:53:13.254Z,99.99
2019-05-11T03:54:13.250Z,99.99
2019-05-11T03:55:13.246Z,99.99
2019-05-11T03:56:13.240Z,99.99
2019-05-11T03:57:12.981Z,99.99
2019-05-11T03:58:13.224Z,99.99
2019-05-11T03:59:13.214Z,99.99
2019-05-11T04:00:13.245Z,99.99
2019-05-11T04:01:13.202Z,99.99
2019-05-11T04:02:13.194Z,99.99
2019-05-11T04:03:13.189Z,99.99
2019-05-11T04:04:16.290Z,99.99
2019-05-11T04:05:13.175Z,99.99
2019-05-11T04:06:13.170Z,99.99
2019-05-11T04:07:13.204Z,99.99
2019-05-11T04:08:13.159Z,99.99
2019-05-11T04:09:13.141Z,99.99
2019-05-11T04:10:13.138Z,99.99
2019-05-11T04:11:13.132Z,99.99
2019-05-11T04:12:31.826Z,99.99
2019-05-11T04:13:13.123Z,99.99
2019-05-11T04:14:13.128Z,99.99
2019-05-11T04:15:13.106Z,99.99
2019-05-11T04:16:13.106Z,99.99
2019-05-11T04:17:13.097Z,99.99
2019-05-11T04:18:13.087Z,99.99
2019-05-11T04:19:13.077Z,99.99
2019-05-11T04:20:13.072Z,99.99
2019-05-11T04:21:13.060Z,99.99
2019-05-11T04:22:13.053Z,99.99
2019-05-11T04:23:13.253Z,99.99
2019-05-11T04:24:13.045Z,99.99
2019-05-11T04:25:13.036Z,99.99
2019-05-11T04:26:13.037Z,99.99
2019-05-11T04:27:13.019Z,99.99
2019-05-11T04:28:13.008Z,99.99
2019-05-11T04:29:13.004Z,99.99
2019-05-11T04:30:13.009Z,99.99
2019-05-11T04:31:12.989Z,99.99
2019-05-11T04:32:12.986Z,99.99
2019-05-11T04:33:12.985Z,99.99
2019-05-11T04:34:12.975Z,99.99
2019-05-11T04:35:12.973Z,99.99
2019-05-11T04:36:12.957Z,99.99
2019-05-11T04:37:12.944Z,99.99
2019-05-11T04:38:12.942Z,99.99
2019-05-11T04:39:12.950Z,99.99
2019-05-11T04:40:12.962Z,99.99
2019-05-11T04:41:12.955Z,99.99
2019-05-11T04:42:12.915Z,99.99
2019-05-11T04:43:12.906Z,99.99
2019-05-11T04:44:12.656Z,99.99
2019-05-11T04:45:12.893Z,99.99
2019-05-11T04:46:12.893Z,99.99
2019-05-11T04:47:12.876Z,99.99
2019-05-11T04:48:12.643Z,99.99
2019-05-11T04:49:12.875Z,99.99
2019-05-11T04:50:12.863Z,99.99
2019-05-11T04:51:12.851Z,99.99
2019-05-11T04:52:12.878Z,99.99
2019-05-11T04:53:12.836Z,99.99
2019-05-11T04:54:12.828Z,99.99
2019-05-11T04:55:12.826Z,99.99
2019-05-11T04:56:12.812Z,99.99
2019-05-11T04:57:12.803Z,99.99
2019-05-11T04:58:12.801Z,99.99
2019-05-11T04:59:12.794Z,99.99
2019-05-11T05:00:12.789Z,99.99
2019-05-11T05:01:12.790Z,99.99
2019-05-11T05:02:12.803Z,99.99
2019-05-11T05:03:12.757Z,99.99
2019-05-11T05:04:17.029Z,99.99
2019-05-11T05:05:12.764Z,99.99
2019-05-11T05:06:24.836Z,99.99
2019-05-11T05:07:16.555Z,99.99
2019-05-11T05:08:12.733Z,99.99
2019-05-11T05:09:12.837Z,99.99
2019-05-11T05:10:19.739Z,99.99
2019-05-11T05:11:12.710Z,99.99
2019-05-11T05:12:16.544Z,99.99
2019-05-11T05:13:13.456Z,99.99
2019-05-11T05:14:12.891Z,99.99
2019-05-11T05:15:12.676Z,99.99
2019-05-11T05:16:12.672Z,99.99
2019-05-11T05:17:12.667Z,99.99
2019-05-11T05:18:12.655Z,99.99
2019-05-11T05:19:12.648Z,99.99
2019-05-11T05:20:12.650Z,99.99
2019-05-11T05:21:12.633Z,99.99
2019-05-11T05:22:12.625Z,99.99
2019-05-11T05:23:12.619Z,99.99
2019-05-11T05:24:12.613Z,99.99
2019-05-11T05:25:12.627Z,99.99
2019-05-11T05:26:12.353Z,99.99
2019-05-11T05:27:12.603Z,99.99
2019-05-11T05:28:12.587Z,99.99
2019-05-11T05:29:12.576Z,99.99
2019-05-11T05:30:12.600Z,99.99
2019-05-11T05:31:12.569Z,99.99
2019-05-11T05:32:12.557Z,99.99
2019-05-11T05:33:12.552Z,99.99
2019-05-11T05:34:12.541Z,99.99
2019-05-11T05:35:12.549Z,99.99
2019-05-11T05:36:12.530Z,99.99
2019-05-11T05:37:12.525Z,99.99
2019-05-11T05:38:12.614Z,99.99
2019-05-11T05:39:12.511Z,99.99
2019-05-11T05:40:12.505Z,99.99
2019-05-11T05:41:12.592Z,99.99
2019-05-11T05:42:12.487Z,99.99
2019-05-11T05:43:28.588Z,99.99
2019-05-11T05:44:12.474Z,99.99
2019-05-11T05:45:12.462Z,99.99
2019-05-11T05:46:12.455Z,99.99
2019-05-11T05:47:12.454Z,99.99
2019-05-11T05:48:12.461Z,99.99
2019-05-11T05:49:12.435Z,99.99
2019-05-11T05:50:12.438Z,99.99
2019-05-11T05:51:12.418Z,99.99
2019-05-11T05:52:12.434Z,99.99
2019-05-11T05:53:12.410Z,99.99
2019-05-11T05:54:12.400Z,99.99
2019-05-11T05:55:12.395Z,99.99
2019-05-11T05:56:12.389Z,99.99
2019-05-11T05:57:12.379Z,99.99
2019-05-11T05:58:12.380Z,99.99
2019-05-11T05:59:12.366Z,99.99
2019-05-11T06:00:12.364Z,99.99
2019-05-11T06:01:12.814Z,99.99
2019-05-11T06:02:12.357Z,99.99
2019-05-11T06:03:12.339Z,99.99
2019-05-11T06:04:12.331Z,99.99
2019-05-11T06:05:12.325Z,99.99
2019-05-11T06:06:12.320Z,99.99
2019-05-11T06:07:12.309Z,99.99
2019-05-11T06:08:12.297Z,99.99
2019-05-11T06:09:12.352Z,99.99
2019-05-11T06:10:12.306Z,99.99
2019-05-11T06:11:12.026Z,99.99
2019-05-11T06:12:12.275Z,99.99
2019-05-11T06:13:12.266Z,99.99
2019-05-11T06:14:12.257Z,99.99
2019-05-11T06:15:11.997Z,99.99
2019-05-11T06:16:12.244Z,99.99
2019-05-11T06:17:12.245Z,99.99
2019-05-11T06:18:12.235Z,99.99
2019-05-11T06:19:12.219Z,99.99
2019-05-11T06:20:12.440Z,99.99
2019-05-11T06:21:12.219Z,99.99
2019-05-11T06:22:12.198Z,99.99
2019-05-11T06:23:12.193Z,99.99
2019-05-11T06:24:12.224Z,99.99
2019-05-11T06:25:12.193Z,99.99
2019-05-11T06:26:12.170Z,99.99
2019-05-11T06:27:12.163Z,99.99
2019-05-11T06:28:12.170Z,99.99
2019-05-11T06:29:12.148Z,99.99
2019-05-11T06:30:12.148Z,99.99
2019-05-11T06:31:12.137Z,99.99
2019-05-11T06:32:12.130Z,99.99
2019-05-11T06:33:12.121Z,99.99
2019-05-11T06:34:12.116Z,99.99
2019-05-11T06:35:12.110Z,99.99
2019-05-11T06:36:12.103Z,99.99
2019-05-11T06:37:12.091Z,99.99
2019-05-11T06:38:12.080Z,99.99
2019-05-11T06:39:12.077Z,99.99
2019-05-11T06:40:12.077Z,99.99
2019-05-11T06:41:12.066Z,99.99
2019-05-11T06:42:12.058Z,99.99
2019-05-11T06:43:12.057Z,99.99
2019-05-11T06:44:12.048Z,99.99
2019-05-11T06:45:12.034Z,99.99
2019-05-11T06:46:12.050Z,99.99
2019-05-11T06:47:12.018Z,99.99
2019-05-11T06:48:12.018Z,99.99
2019-05-11T06:49:12.009Z,99.99
2019-05-11T06:50:11.785Z,99.99
2019-05-11T06:51:12.020Z,99.99
2019-05-11T06:52:12.038Z,99.99
2019-05-11T06:53:11.987Z,99.99
2019-05-11T06:54:11.971Z,99.99
2019-05-11T06:55:11.971Z,99.99
2019-05-11T06:56:11.955Z,99.99
2019-05-11T06:57:11.947Z,99.99
2019-05-11T06:58:11.939Z,99.99
2019-05-11T06:59:11.682Z,99.99
2019-05-11T07:00:11.928Z,99.99
2019-05-11T07:01:11.920Z,99.99
2019-05-11T07:02:11.910Z,99.99
2019-05-11T07:03:11.901Z,99.99
2019-05-11T07:04:11.899Z,99.99
2019-05-11T07:05:11.887Z,99.99
2019-05-11T07:06:11.886Z,99.99
2019-05-11T07:07:11.874Z,99.99
2019-05-11T07:08:11.868Z,99.99
2019-05-11T07:09:11.859Z,99.99
2019-05-11T07:10:11.864Z,99.99
2019-05-11T07:11:11.846Z,99.99
2019-05-11T07:12:12.003Z,99.99
2019-05-11T07:13:11.833Z,99.99
2019-05-11T07:14:22.708Z,99.99
2019-05-11T07:15:11.819Z,99.99
2019-05-11T07:16:11.821Z,99.99
2019-05-11T07:17:11.825Z,99.99
2019-05-11T07:18:11.553Z,99.99
2019-05-11T07:19:11.787Z,99.99
2019-05-11T07:20:11.778Z,99.99
2019-05-11T07:21:11.772Z,99.99
2019-05-11T07:22:11.767Z,99.99
2019-05-11T07:23:11.755Z,99.99
2019-05-11T07:24:11.751Z,99.99
2019-05-11T07:25:11.741Z,99.99
2019-05-11T07:26:11.755Z,99.99
2019-05-11T07:27:11.730Z,99.99
2019-05-11T07:28:11.721Z,99.99
2019-05-11T07:29:11.712Z,99.99
2019-05-11T07:30:11.722Z,99.99
2019-05-11T07:31:11.703Z,99.99
2019-05-11T07:32:25.994Z,99.99
2019-05-11T07:33:11.685Z,99.99
2019-05-11T07:34:11.678Z,99.99
2019-05-11T07:35:11.672Z,99.99
2019-05-11T07:36:11.661Z,99.99
2019-05-11T07:37:11.653Z,99.99
2019-05-11T07:38:11.648Z,99.99
2019-05-11T07:39:11.644Z,99.99
2019-05-11T07:40:11.632Z,99.99
2019-05-11T07:41:11.635Z,99.99
2019-05-11T07:42:11.623Z,99.99
2019-05-11T07:43:12.409Z,99.99
2019-05-11T07:44:12.533Z,99.99
2019-05-11T07:45:11.684Z,99.99
2019-05-11T07:46:11.590Z,99.99
2019-05-11T07:47:11.585Z,99.99
2019-05-11T07:48:11.579Z,99.99
2019-05-11T07:49:11.568Z,99.99
2019-05-11T07:50:11.568Z,99.99
2019-05-11T07:51:11.555Z,99.99
2019-05-11T07:52:11.549Z,99.99
2019-05-11T07:53:11.539Z,99.99
2019-05-11T07:54:11.539Z,99.99
2019-05-11T07:55:11.544Z,99.99
2019-05-11T07:56:11.520Z,99.99
2019-05-11T07:57:11.258Z,99.99
2019-05-11T07:58:11.502Z,99.99
2019-05-11T07:59:11.507Z,99.99
2019-05-11T08:00:11.495Z,99.99
2019-05-11T08:01:11.483Z,99.99
2019-05-11T08:02:11.480Z,99.99
2019-05-11T08:03:11.563Z,99.99
2019-05-11T08:04:11.472Z,99.99
2019-05-11T08:05:11.488Z,99.99
2019-05-11T08:06:11.495Z,99.99
2019-05-11T08:07:11.439Z,99.99
2019-05-11T08:08:11.434Z,99.99
2019-05-11T08:09:11.424Z,99.99
2019-05-11T08:10:11.426Z,99.99
2019-05-11T08:11:11.414Z,99.99
2019-05-11T08:12:11.512Z,99.99
2019-05-11T08:13:11.743Z,99.99
2019-05-11T08:14:11.389Z,99.99
2019-05-11T08:15:18.020Z,99.99
2019-05-11T08:16:11.380Z,99.99
2019-05-11T08:17:12.017Z,99.99
2019-05-11T08:18:11.369Z,99.99
2019-05-11T08:19:13.348Z,99.99
2019-05-11T08:20:11.344Z,99.99
2019-05-11T08:21:11.425Z,99.99
2019-05-11T08:22:11.334Z,99.99
2019-05-11T08:23:11.597Z,99.99
2019-05-11T08:24:11.694Z,99.99
2019-05-11T08:25:11.806Z,99.99
2019-05-11T08:26:11.301Z,99.99
2019-05-11T08:27:11.045Z,99.99
2019-05-11T08:28:14.389Z,99.99
2019-05-11T08:29:11.284Z,99.99
2019-05-11T08:30:11.283Z,99.99
2019-05-11T08:31:11.264Z,99.99
2019-05-11T08:32:11.261Z,99.99
2019-05-11T08:33:11.251Z,99.99
2019-05-11T08:34:11.476Z,99.99
2019-05-11T08:35:11.235Z,99.99
2019-05-11T08:36:11.241Z,99.99
2019-05-11T08:37:11.398Z,99.99
2019-05-11T08:38:11.409Z,99.99
2019-05-11T08:39:11.209Z,99.99
2019-05-11T08:40:11.210Z,99.99
2019-05-11T08:41:11.197Z,99.99
2019-05-11T08:42:11.298Z,99.99
2019-05-11T08:43:11.360Z,99.99
2019-05-11T08:44:11.505Z,99.99
2019-05-11T08:45:24.617Z,99.99
2019-05-11T08:46:11.158Z,99.99
2019-05-11T08:47:10.897Z,99.99
2019-05-11T08:48:11.143Z,99.99
2019-05-11T08:49:11.276Z,99.99
2019-05-11T08:50:11.131Z,99.99
2019-05-11T08:51:11.123Z,99.99
2019-05-11T08:52:10.872Z,99.99
2019-05-11T08:53:11.202Z,99.99
2019-05-11T08:54:11.578Z,99.99
2019-05-11T08:55:11.098Z,99.99
2019-05-11T08:56:15.422Z,99.99
2019-05-11T08:57:10.832Z,99.99
2019-05-11T08:58:11.068Z,99.99
2019-05-11T08:59:11.089Z,99.99
2019-05-11T09:00:11.059Z,99.99
2019-05-11T09:01:11.387Z,99.99
2019-05-11T09:02:10.789Z,99.99
2019-05-11T09:03:11.122Z,99.99
2019-05-11T09:04:11.544Z,99.99
2019-05-11T09:05:11.032Z,99.99
2019-05-11T09:06:11.035Z,99.99
2019-05-11T09:07:10.753Z,99.99
2019-05-11T09:08:10.999Z,99.99
2019-05-11T09:09:13.218Z,99.99
2019-05-11T09:10:10.984Z,99.99
2019-05-11T09:11:10.988Z,99.99
2019-05-11T09:12:10.718Z,99.99
2019-05-11T09:13:10.967Z,99.99
2019-05-11T09:14:10.959Z,99.99
2019-05-11T09:15:11.348Z,99.99
2019-05-11T09:16:10.945Z,99.99
2019-05-11T09:17:10.682Z,99.99
2019-05-11T09:18:10.987Z,99.99
2019-05-11T09:19:11.344Z,99.99
2019-05-11T09:20:11.325Z,99.99
2019-05-11T09:21:10.938Z,99.99
2019-05-11T09:22:10.659Z,99.99
2019-05-11T09:23:10.894Z,99.99
2019-05-11T09:24:11.093Z,99.99
2019-05-11T09:25:11.401Z,99.99
2019-05-11T09:26:11.398Z,99.99
2019-05-11T09:27:10.626Z,99.99
2019-05-11T09:28:11.128Z,99.99
2019-05-11T09:29:11.262Z,99.99
2019-05-11T09:30:10.988Z,99.99
2019-05-11T09:31:11.114Z,99.99
2019-05-11T09:32:11.362Z,99.99
2019-05-11T09:33:11.148Z,99.99
2019-05-11T09:34:11.560Z,99.99
2019-05-11T09:35:10.975Z,99.99
2019-05-11T09:36:11.172Z,99.99
2019-05-11T09:37:10.553Z,99.99
2019-05-11T09:38:10.788Z,99.99
2019-05-11T09:39:11.009Z,99.99
2019-05-11T09:40:10.770Z,99.99
2019-05-11T09:41:14.508Z,99.99
2019-05-11T09:42:10.505Z,99.99
2019-05-11T09:43:11.069Z,99.99
2019-05-11T09:44:11.560Z,99.99
2019-05-11T09:45:10.738Z,99.99
2019-05-11T09:46:10.963Z,99.99
2019-05-11T09:47:11.011Z,99.99
2019-05-11T09:48:11.156Z,99.99
2019-05-11T09:49:10.706Z,99.99
2019-05-11T09:50:11.221Z,99.99
2019-05-11T09:51:10.691Z,99.99
2019-05-11T09:52:10.436Z,99.99
2019-05-11T09:53:11.082Z,99.99
2019-05-11T09:54:10.673Z,99.99
2019-05-11T09:55:11.369Z,99.99
2019-05-11T09:56:10.428Z,99.99
2019-05-11T09:57:10.941Z,99.99
2019-05-11T09:58:11.076Z,99.99
2019-05-11T09:59:11.378Z,99.99
2019-05-11T10:00:11.291Z,99.99
2019-05-11T10:01:11.364Z,99.99
2019-05-11T10:02:10.366Z,99.99
2019-05-11T10:03:10.801Z,99.99
2019-05-11T10:04:11.532Z,99.99
2019-05-11T10:05:10.927Z,99.99
2019-05-11T10:06:10.931Z,99.99
2019-05-11T10:07:11.485Z,99.99
2019-05-11T10:08:10.332Z,99.99
2019-05-11T10:09:10.877Z,99.99
2019-05-11T10:10:11.730Z,99.99
2019-05-11T10:11:10.947Z,99.99
2019-05-11T10:12:10.467Z,99.99
2019-05-11T10:13:10.710Z,99.99
2019-05-11T10:14:10.904Z,99.99
2019-05-11T10:15:11.042Z,99.99
2019-05-11T10:16:13.175Z,99.99
2019-05-11T10:17:10.254Z,99.99
2019-05-11T10:18:10.795Z,99.99
2019-05-11T10:19:11.043Z,99.99
2019-05-11T10:20:11.844Z,99.99
2019-05-11T10:21:10.679Z,99.99
2019-05-11T10:22:10.545Z,99.99
2019-05-11T10:23:10.919Z,99.99
2019-05-11T10:24:11.042Z,99.99
2019-05-11T10:25:11.504Z,99.99
2019-05-11T10:26:10.539Z,99.99
2019-05-11T10:27:10.948Z,99.99
2019-05-11T10:28:11.223Z,99.99
2019-05-11T10:29:10.525Z,99.99
2019-05-11T10:30:10.787Z,99.99
2019-05-11T10:31:11.111Z,99.99
2019-05-11T10:32:10.508Z,99.99
2019-05-11T10:33:10.811Z,99.99
2019-05-11T10:34:11.116Z,99.99
2019-05-11T10:35:10.683Z,99.99
2019-05-11T10:36:10.830Z,99.99
2019-05-11T10:37:11.047Z,99.99
2019-05-11T10:38:11.516Z,99.99
2019-05-11T10:39:10.391Z,99.99
2019-05-11T10:40:12.060Z,99.99
2019-05-11T10:41:11.192Z,99.99
2019-05-11T10:42:11.093Z,99.99
2019-05-11T10:43:10.505Z,99.99
2019-05-11T10:44:10.773Z,99.99
2019-05-11T10:45:11.614Z,99.99
2019-05-11T10:46:23.416Z,99.99
2019-05-11T10:47:10.723Z,99.99
2019-05-11T10:48:11.268Z,99.99
2019-05-11T10:49:10.571Z,99.99
2019-05-11T10:50:11.179Z,99.99
2019-05-11T10:51:10.774Z,99.99
2019-05-11T10:52:12.297Z,99.99
2019-05-11T10:53:10.533Z,99.99
2019-05-11T10:54:11.203Z,99.99
2019-05-11T10:55:11.259Z,99.99
2019-05-11T10:56:11.238Z,99.99
2019-05-11T10:57:10.874Z,99.99
2019-05-11T10:58:11.119Z,99.99
2019-05-11T10:59:10.544Z,99.99
2019-05-11T11:00:10.864Z,99.99
2019-05-11T11:01:11.317Z,99.99
2019-05-11T11:02:10.512Z,99.99
2019-05-11T11:03:10.915Z,99.99
2019-05-11T11:04:10.516Z,99.99
2019-05-11T11:05:10.660Z,99.99
2019-05-11T11:06:10.926Z,99.99
2019-05-11T11:07:10.292Z,99.99
2019-05-11T11:08:10.842Z,99.99
2019-05-11T11:09:10.751Z,99.99
2019-05-11T11:10:11.394Z,99.99
2019-05-11T11:11:10.622Z,99.99
2019-05-11T11:12:10.764Z,99.99
2019-05-11T11:13:10.863Z,99.99
2019-05-11T11:14:11.174Z,99.99
2019-05-11T11:15:10.300Z,99.99
2019-05-11T11:16:10.859Z,99.99
2019-05-11T11:17:11.244Z,99.99
2019-05-11T11:18:11.083Z,99.99
2019-05-11T11:19:10.157Z,99.99
2019-05-11T11:20:10.836Z,99.99
2019-05-11T11:21:11.131Z,99.99
2019-05-11T11:22:40.088Z,99.99
2019-05-11T11:23:11.345Z,99.99
2019-05-11T11:24:10.229Z,99.99
2019-05-11T11:25:10.355Z,99.99
2019-05-11T11:26:10.771Z,99.99
2019-05-11T11:27:13.164Z,99.99
2019-05-11T11:28:10.953Z,99.99
2019-05-11T11:29:11.057Z,99.99
2019-05-11T11:30:11.644Z,99.99
2019-05-11T11:31:10.376Z,99.99
2019-05-11T11:32:10.560Z,99.99
2019-05-11T11:33:10.515Z,99.99
2019-05-11T11:34:10.708Z,99.99
2019-05-11T11:35:11.044Z,99.99
2019-05-11T11:36:10.762Z,99.99
2019-05-11T11:37:10.778Z,99.99
2019-05-11T11:38:11.161Z,99.99
2019-05-11T11:39:10.876Z,99.99
2019-05-11T11:40:10.849Z,99.99
2019-05-11T11:41:10.193Z,99.99
2019-05-11T11:42:10.863Z,99.99
2019-05-11T11:43:11.125Z,99.99
2019-05-11T11:44:10.442Z,99.99
2019-05-11T11:45:10.482Z,99.99
2019-05-11T11:46:10.830Z,99.99
2019-05-11T11:47:11.177Z,99.99
2019-05-11T11:48:11.147Z,99.99
2019-05-11T11:49:10.555Z,99.99
2019-05-11T11:50:11.577Z,99.99
2019-05-11T11:51:10.543Z,99.99
2019-05-11T11:52:10.761Z,99.24
2019-05-11T11:53:10.868Z,99.19
2019-05-11T11:54:11.239Z,99.66
2019-05-11T11:55:10.768Z,98.9
2019-05-11T11:56:10.839Z,99.09
2019-05-11T11:57:10.236Z,99.9
2019-05-11T11:58:10.728Z,99.99
2019-05-11T11:59:11.026Z,99.99
2019-05-11T12:00:11.637Z,99.99
2019-05-11T12:01:10.754Z,99.99
2019-05-11T12:02:11.124Z,99.99
2019-05-11T12:03:10.494Z,99.99
2019-05-11T12:04:10.774Z,99.99
2019-05-11T12:05:11.281Z,99.99
2019-05-11T12:06:11.168Z,99.99
2019-05-11T12:07:10.944Z,99.99
2019-05-11T12:08:10.811Z,99.99
2019-05-11T12:09:11.292Z,99.99
2019-05-11T12:10:10.347Z,99.99
2019-05-11T12:11:10.385Z,99.99
2019-05-11T12:12:10.918Z,99.99
2019-05-11T12:13:11.130Z,99.99
2019-05-11T12:14:11.179Z,99.99
2019-05-11T12:15:11.305Z,99.99
2019-05-11T12:16:10.258Z,99.99
2019-05-11T12:17:13.308Z,99.99
2019-05-11T12:18:10.701Z,99.99
2019-05-11T12:19:10.607Z,99.99
2019-05-11T12:20:11.282Z,98.9
2019-05-11T12:21:10.501Z,96.51
2019-05-11T12:22:11.078Z,96.89
2019-05-11T12:23:11.248Z,96.99
2019-05-11T12:24:10.732Z,94.22
2019-05-11T12:25:10.436Z,92.21
2019-05-11T12:26:10.963Z,92.02
2019-05-11T12:27:10.201Z,89.44
2019-05-11T12:28:10.438Z,89.63
2019-05-11T12:29:10.673Z,88.1
2019-05-11T12:30:11.453Z,87.43
2019-05-11T12:31:11.189Z,88.43
2019-05-11T12:32:10.627Z,87.76
2019-05-11T12:33:10.697Z,86.9
2019-05-11T12:34:11.032Z,85.47
2019-05-11T12:35:11.127Z,84.8
2019-05-11T12:36:10.380Z,84.89
2019-05-11T12:37:10.953Z,84.61
2019-05-11T12:38:10.272Z,84.89
2019-05-11T12:39:10.953Z,84.52
2019-05-11T12:40:10.927Z,82.79
2019-05-11T12:41:11.241Z,83.37
2019-05-11T12:42:11.085Z,84.89
2019-05-11T12:43:10.775Z,84.76
2019-05-11T12:44:10.857Z,82.65
2019-05-11T12:45:10.077Z,82.56
2019-05-11T12:46:10.645Z,83.61
2019-05-11T12:47:25.095Z,83.99
2019-05-11T12:48:11.465Z,83.7
2019-05-11T12:49:10.081Z,82.42
2019-05-11T12:50:10.438Z,83.18
2019-05-11T12:51:10.469Z,83.67
2019-05-11T12:52:10.183Z,82.04
2019-05-11T12:53:10.504Z,83.09